Time;durP1;ratioP1;P1;durP2;ratioP2;P2;SDS_P1;SDS_P2;PMS_P1;PMS_P2;Temp;Humidity;BMP_temperature;BMP_pressure;BME280_temperature;BME280_humidity;BME280_pressure;Samples;Min_cycle;Max_cycle;Signal;HPM_P1;HPM_P2
2022/07/15 00:05:23;;;;;;;10.18;5.28;;;;;;;;;;21081918;28;20044;-73
2022/07/15 00:15:27;;;;;;;8.18;5.00;;;;;;;;;;21081282;28;20052;-74
2022/07/15 00:25:29;;;;;;;7.72;4.97;;;;;;;;;;21082404;28;20078;-74
2022/07/15 00:35:32;;;;;;;7.47;5.18;;;;;;;;;;21089422;28;20130;-73
2022/07/15 00:45:34;;;;;;;8.00;5.40;;;;;;;;;;21082068;28;20120;-74
2022/07/15 00:55:43;;;;;;;8.93;5.78;;;;;;;;;;21095466;28;20055;-73
2022/07/15 01:05:46;;;;;;;10.43;5.72;;;;;;;;;;21096533;28;20051;-73
2022/07/15 01:15:49;;;;;;;6.15;4.80;;;;;;;;;;21095438;28;20123;-73
2022/07/15 01:25:53;;;;;;;10.00;5.67;;;;;;;;;;21094415;28;20052;-74
2022/07/15 01:35:56;;;;;;;9.90;5.32;;;;;;;;;;21093543;28;20121;-75
2022/07/15 01:46:06;;;;;;;11.20;5.38;;;;;;;;;;21093019;28;20044;-75
2022/07/15 01:56:13;;;;;;;12.75;5.97;;;;;;;;;;21092356;28;20076;-72
2022/07/15 02:06:19;;;;;;;8.43;5.32;;;;;;;;;;21120980;28;20066;-73
2022/07/15 02:16:24;;;;;;;;;;;;;;;;;;21090889;28;20136;-76
2022/07/15 02:26:27;;;;;;;9.50;5.18;;;;;;;;;;21090787;28;20281;-74
2022/07/15 02:36:31;;;;;;;12.37;6.47;;;;;;;;;;21098267;28;20052;-73
2022/07/15 02:46:34;;;;;;;10.10;6.47;;;;;;;;;;21086561;28;20024;-73
2022/07/15 02:56:36;;;;;;;7.75;5.63;;;;;;;;;;21105692;28;20048;-74
2022/07/15 03:06:39;;;;;;;8.25;5.80;;;;;;;;;;21115601;28;20055;-73
2022/07/15 03:16:42;;;;;;;7.72;4.70;;;;;;;;;;21091827;28;20048;-74
2022/07/15 03:26:46;;;;;;;10.13;5.47;;;;;;;;;;21088179;28;20051;-73
2022/07/15 03:36:48;;;;;;;20.88;6.30;;;;;;;;;;21086911;28;20052;-72
2022/07/15 03:46:50;;;;;;;10.63;5.65;;;;;;;;;;21084507;28;20107;-72
2022/07/15 03:56:52;;;;;;;10.15;6.40;;;;;;;;;;21082509;28;20062;-73
2022/07/15 04:06:54;;;;;;;10.32;5.88;;;;;;;;;;21082126;28;20432;-74
2022/07/15 04:17:00;;;;;;;12.82;5.38;;;;;;;;;;21081214;28;20048;-72
2022/07/15 04:27:02;;;;;;;10.00;6.32;;;;;;;;;;21079141;28;20127;-74
2022/07/15 04:37:04;;;;;;;11.82;6.88;;;;;;;;;;21062791;28;20097;-74
2022/07/15 04:47:06;;;;;;;10.77;7.30;;;;;;;;;;21079314;28;20044;-73
2022/07/15 04:57:08;;;;;;;14.05;9.00;;;;;;;;;;21078621;28;20048;-71
2022/07/15 05:07:10;;;;;;;14.23;8.40;;;;;;;;;;21078539;28;20055;-73
2022/07/15 05:17:13;;;;;;;12.38;8.95;;;;;;;;;;21059613;28;20454;-74
2022/07/15 05:27:15;;;;;;;15.77;9.63;;;;;;;;;;21078683;28;20488;-74
2022/07/15 05:37:17;;;;;;;22.58;10.55;;;;;;;;;;21087736;28;20476;-74
2022/07/15 05:47:20;;;;;;;16.10;11.02;;;;;;;;;;21109419;28;20125;-73
2022/07/15 05:57:21;;;;;;;24.60;13.20;;;;;;;;;;21110819;28;20121;-73
2022/07/15 06:07:23;;;;;;;16.77;10.82;;;;;;;;;;21092347;28;20080;-73
2022/07/15 06:17:25;;;;;;;17.55;11.77;;;;;;;;;;21090541;28;20056;-73
2022/07/15 06:27:29;;;;;;;15.65;10.35;;;;;;;;;;21089408;28;20094;-74
2022/07/15 06:37:49;;;;;;;14.43;11.25;;;;;;;;;;21089053;28;20048;-72
2022/07/15 06:47:51;;;;;;;17.00;10.43;;;;;;;;;;21068720;28;20077;-73
2022/07/15 06:57:54;;;;;;;16.35;10.40;;;;;;;;;;21086756;28;20052;-74
2022/07/15 07:07:57;;;;;;;21.75;11.15;;;;;;;;;;21086458;28;20048;-74
2022/07/15 07:18:00;;;;;;;16.75;9.65;;;;;;;;;;21067222;28;20508;-73
2022/07/15 07:28:03;;;;;;;12.57;8.80;;;;;;;;;;21084389;28;20076;-73
2022/07/15 07:38:05;;;;;;;11.32;8.57;;;;;;;;;;21083286;28;20086;-74
2022/07/15 07:48:08;;;;;;;12.57;8.52;;;;;;;;;;21082971;28;20051;-73
2022/07/15 07:58:11;;;;;;;15.32;8.82;;;;;;;;;;21085820;28;20123;-71
2022/07/15 08:08:15;;;;;;;11.65;7.93;;;;;;;;;;21082788;28;20044;-75
2022/07/15 08:18:17;;;;;;;10.35;7.07;;;;;;;;;;21082037;28;20052;-74
2022/07/15 08:28:20;;;;;;;14.30;8.35;;;;;;;;;;21079850;28;20048;-72
2022/07/15 08:38:23;;;;;;;10.52;7.10;;;;;;;;;;21061406;28;20074;-74
2022/07/15 08:48:28;;;;;;;10.75;7.63;;;;;;;;;;21079833;28;20349;-74
2022/07/15 08:58:31;;;;;;;10.60;7.60;;;;;;;;;;21080163;28;20044;-74
2022/07/15 09:08:34;;;;;;;13.55;8.65;;;;;;;;;;21083902;28;20077;-73
2022/07/15 09:18:38;;;;;;;11.23;7.53;;;;;;;;;;21095005;28;20055;-71
2022/07/15 09:28:41;;;;;;;12.13;7.03;;;;;;;;;;21095513;28;20517;-77
2022/07/15 09:38:53;;;;;;;9.55;5.82;;;;;;;;;;21107666;28;20088;-72
2022/07/15 09:48:56;;;;;;;7.82;4.72;;;;;;;;;;21093849;28;20434;-71
2022/07/15 09:58:58;;;;;;;8.88;4.93;;;;;;;;;;21091812;28;20051;-71
2022/07/15 10:09:00;;;;;;;6.40;4.05;;;;;;;;;;21081860;28;20056;-71
2022/07/15 10:19:19;;;;;;;9.80;3.85;;;;;;;;;;21088744;28;20163;-73
2022/07/15 10:29:21;;;;;;;9.95;4.57;;;;;;;;;;21088811;28;20044;-73
2022/07/15 10:39:25;;;;;;;8.20;4.00;;;;;;;;;;21088637;28;20056;-72
2022/07/15 10:49:29;;;;;;;7.80;4.35;;;;;;;;;;21088797;28;20051;-73
2022/07/15 10:59:35;;;;;;;5.78;4.07;;;;;;;;;;21087643;28;20052;-73
2022/07/15 11:09:48;;;;;;;6.82;3.35;;;;;;;;;;21086018;28;20044;-72
2022/07/15 11:19:51;;;;;;;10.65;3.47;;;;;;;;;;21086055;28;20054;-72
2022/07/15 11:30:02;;;;;;;6.60;3.63;;;;;;;;;;21065670;28;20044;-71
2022/07/15 11:44:29;;;;;;;7.82;3.30;;;;;;;;;;21084167;28;20052;-71
2022/07/15 11:50:35;;;;;;;7.95;3.65;;;;;;;;;;21082757;28;20044;-71
2022/07/15 12:00:37;;;;;;;10.20;3.53;;;;;;;;;;21082327;28;20056;-74
2022/07/15 12:10:39;;;;;;;6.93;3.42;;;;;;;;;;21081309;28;20416;-74
2022/07/15 12:20:41;;;;;;;8.20;3.50;;;;;;;;;;21080447;28;20056;-74
2022/07/15 12:30:43;;;;;;;8.30;4.05;;;;;;;;;;21080845;28;20089;-73
2022/07/15 12:40:45;;;;;;;9.50;3.17;;;;;;;;;;21079745;28;20169;-71
2022/07/15 12:50:47;;;;;;;6.35;3.50;;;;;;;;;;21078365;28;20044;-73
2022/07/15 13:00:49;;;;;;;6.72;3.47;;;;;;;;;;21080269;28;20147;-72
2022/07/15 13:10:52;;;;;;;9.10;3.50;;;;;;;;;;21078468;28;20057;-70
2022/07/15 13:20:55;;;;;;;9.35;3.63;;;;;;;;;;21097057;28;20052;-77
2022/07/15 13:30:57;;;;;;;5.40;3.47;;;;;;;;;;21095222;28;20105;-70
2022/07/15 13:41:00;;;;;;;7.35;3.63;;;;;;;;;;21124565;28;20048;-74
2022/07/15 14:01:26;;;;;;;4.32;3.55;;;;;;;;;;21094834;28;20060;-74
2022/07/15 14:11:28;;;;;;;6.73;3.23;;;;;;;;;;21092407;28;20132;-75
2022/07/15 14:21:30;;;;;;;5.72;2.80;;;;;;;;;;21091190;28;20052;-74
2022/07/15 14:31:33;;;;;;;6.20;3.05;;;;;;;;;;21090278;28;20048;-74
2022/07/15 14:41:35;;;;;;;5.67;3.27;;;;;;;;;;21088485;28;20135;-74
2022/07/15 14:51:37;;;;;;;5.72;3.17;;;;;;;;;;21088882;28;20048;-75
2022/07/15 15:01:39;;;;;;;4.90;2.92;;;;;;;;;;21087585;28;20059;-75
2022/07/15 15:11:41;;;;;;;6.20;2.92;;;;;;;;;;21084956;28;20048;-73
2022/07/15 15:21:45;;;;;;;4.22;2.65;;;;;;;;;;21088371;28;20048;-72
2022/07/15 15:31:48;;;;;;;3.35;2.67;;;;;;;;;;21084391;28;20498;-72
2022/07/15 15:41:50;;;;;;;6.30;2.83;;;;;;;;;;21091387;28;20101;-74
2022/07/15 15:51:52;;;;;;;6.95;2.90;;;;;;;;;;21082307;28;20090;-59
2022/07/15 16:01:55;;;;;;;3.63;2.67;;;;;;;;;;21082124;28;20126;-62
2022/07/15 16:11:57;;;;;;;4.80;2.20;;;;;;;;;;21080191;28;20056;-65
2022/07/15 16:32:20;;;;;;;4.03;2.20;;;;;;;;;;21079376;28;20411;-67
2022/07/15 16:42:23;;;;;;;3.47;1.92;;;;;;;;;;21079369;28;20090;-65
2022/07/15 16:52:25;;;;;;;5.10;2.30;;;;;;;;;;21079318;28;20062;-62
2022/07/15 17:02:27;;;;;;;4.13;2.20;;;;;;;;;;21079747;28;20059;-70
2022/07/15 17:12:29;;;;;;;6.03;2.47;;;;;;;;;;21061328;28;20110;-63
2022/07/15 17:22:31;;;;;;;5.75;2.30;;;;;;;;;;21077704;28;20164;-71
2022/07/15 17:32:33;;;;;;;8.20;2.70;;;;;;;;;;21083390;28;20040;-59
2022/07/15 17:42:35;;;;;;;3.45;2.25;;;;;;;;;;21092160;28;20404;-65
2022/07/15 17:52:41;;;;;;;8.02;3.05;;;;;;;;;;21075066;28;20048;-65
2022/07/15 18:02:44;;;;;;;5.25;2.65;;;;;;;;;;21091465;28;20071;-66
2022/07/15 18:12:46;;;;;;;4.95;3.35;;;;;;;;;;21089859;28;20049;-67
2022/07/15 18:22:49;;;;;;;5.60;2.30;;;;;;;;;;21071303;28;20491;-67
2022/07/15 18:32:51;;;;;;;6.57;2.97;;;;;;;;;;21089634;28;20411;-69
2022/07/15 18:42:53;;;;;;;4.95;2.67;;;;;;;;;;21067956;28;20048;-67
2022/07/15 18:52:55;;;;;;;4.82;3.03;;;;;;;;;;21086933;28;20495;-65
2022/07/15 19:02:57;;;;;;;6.20;2.67;;;;;;;;;;21086868;28;20412;-66
2022/07/15 19:12:58;;;;;;;7.45;3.90;;;;;;;;;;21084893;28;20056;-66
2022/07/15 19:23:00;;;;;;;14.07;6.03;;;;;;;;;;21084111;28;20126;-66
2022/07/15 19:33:02;;;;;;;9.65;5.38;;;;;;;;;;21085112;28;20071;-67
2022/07/15 19:43:04;;;;;;;7.28;4.55;;;;;;;;;;21084469;28;20098;-67
2022/07/15 19:53:07;;;;;;;8.23;4.68;;;;;;;;;;21083159;28;20462;-68
2022/07/15 20:03:09;;;;;;;10.90;4.95;;;;;;;;;;21081797;28;20055;-72
2022/07/15 20:13:11;;;;;;;13.27;5.03;;;;;;;;;;21080988;28;20541;-67
2022/07/15 20:23:13;;;;;;;9.98;5.22;;;;;;;;;;21082078;28;20043;-65
2022/07/15 20:33:15;;;;;;;15.88;6.53;;;;;;;;;;21079630;28;20043;-67
2022/07/15 20:43:17;;;;;;;23.25;18.13;;;;;;;;;;21079667;28;20052;-67
2022/07/15 20:53:19;;;;;;;15.13;6.18;;;;;;;;;;21079177;28;20048;-66
2022/07/15 21:03:21;;;;;;;17.60;6.03;;;;;;;;;;21079203;28;20044;-65
2022/07/15 21:13:23;;;;;;;15.40;5.15;;;;;;;;;;21094578;28;20055;-66
2022/07/15 21:23:25;;;;;;;15.13;5.32;;;;;;;;;;21094550;28;20506;-69
2022/07/15 21:33:27;;;;;;;14.95;4.68;;;;;;;;;;21093474;28;20119;-71
2022/07/15 21:43:29;;;;;;;14.80;4.05;;;;;;;;;;21075538;28;20059;-69
2022/07/15 21:53:33;;;;;;;12.97;5.23;;;;;;;;;;21091942;28;20044;-66
2022/07/15 22:03:37;;;;;;;10.35;5.35;;;;;;;;;;21091635;28;20044;-69
2022/07/15 22:13:41;;;;;;;14.38;5.47;;;;;;;;;;21072421;28;20050;-67
2022/07/15 22:23:43;;;;;;;18.35;5.13;;;;;;;;;;21089263;28;20093;-72
2022/07/15 22:33:45;;;;;;;14.77;5.40;;;;;;;;;;21088790;28;20104;-66
2022/07/15 22:43:47;;;;;;;15.40;5.22;;;;;;;;;;21088571;28;20047;-70
2022/07/15 22:53:49;;;;;;;12.63;4.05;;;;;;;;;;21087611;28;20055;-66
2022/07/15 23:03:52;;;;;;;20.63;4.43;;;;;;;;;;21087261;28;20135;-71
2022/07/15 23:13:54;;;;;;;24.52;5.20;;;;;;;;;;21085529;28;20051;-68
2022/07/15 23:23:56;;;;;;;11.20;4.05;;;;;;;;;;21088078;28;20078;-70
2022/07/15 23:33:58;;;;;;;5.43;3.40;;;;;;;;;;21089876;28;20044;-66
2022/07/15 23:43:59;;;;;;;10.95;3.40;;;;;;;;;;21086305;28;20467;-66
2022/07/15 23:54:02;;;;;;;14.07;4.00;;;;;;;;;;21065976;28;20052;-66
